createdAt,value
2019-03-16T00:01:00.808Z,74.30
2019-03-16T00:03:31.136Z,73.40
2019-03-16T00:06:01.477Z,73.30
2019-03-16T00:08:31.826Z,74.30
2019-03-16T00:11:02.169Z,73.90
2019-03-16T00:13:32.493Z,73.60
2019-03-16T00:16:02.840Z,72.90
2019-03-16T00:18:33.180Z,72.50
2019-03-16T00:21:03.526Z,73.00
2019-03-16T00:23:33.858Z,73.00
2019-03-16T00:26:04.266Z,73.50
2019-03-16T00:28:34.549Z,73.30
2019-03-16T00:31:04.888Z,72.70
2019-03-16T00:33:35.448Z,72.70
2019-03-16T00:36:05.857Z,73.00
2019-03-16T00:38:36.212Z,74.70
2019-03-16T00:41:06.558Z,73.50
2019-03-16T00:43:36.902Z,74.00
2019-03-16T00:46:07.322Z,74.00
2019-03-16T00:48:37.656Z,73.50
2019-03-16T00:51:08.015Z,74.10
2019-03-16T00:53:38.369Z,74.10
2019-03-16T00:56:08.792Z,73.90
2019-03-16T00:58:39.127Z,73.80
2019-03-16T01:01:09.542Z,74.40
2019-03-16T01:03:39.888Z,74.60
2019-03-16T01:06:10.313Z,75.00
2019-03-16T01:08:40.636Z,75.10
2019-03-16T01:11:10.996Z,75.70
2019-03-16T01:13:41.328Z,76.10
2019-03-16T01:16:11.670Z,75.90
2019-03-16T01:18:42.027Z,76.40
2019-03-16T01:21:12.367Z,76.40
2019-03-16T01:23:42.697Z,76.40
2019-03-16T01:26:13.040Z,76.80
2019-03-16T01:28:43.398Z,76.60
2019-03-16T01:31:13.750Z,76.80
2019-03-16T01:33:44.085Z,77.00
2019-03-16T01:36:14.426Z,76.60
2019-03-16T01:38:44.750Z,76.60
2019-03-16T01:41:15.109Z,76.80
2019-03-16T01:43:45.475Z,77.00
2019-03-16T01:46:15.883Z,77.40
2019-03-16T01:48:46.216Z,77.60
2019-03-16T01:51:16.549Z,77.20
2019-03-16T01:53:46.882Z,77.50
2019-03-16T01:56:17.227Z,77.20
2019-03-16T01:58:47.578Z,77.50
2019-03-16T02:01:17.917Z,77.00
2019-03-16T02:03:48.335Z,77.70
2019-03-16T02:06:18.777Z,78.10
2019-03-16T02:08:49.110Z,77.70
2019-03-16T02:11:20.410Z,77.40
2019-03-16T02:13:50.742Z,77.70
2019-03-16T02:16:21.073Z,78.00
2019-03-16T02:18:51.407Z,78.40
2019-03-16T02:21:21.758Z,78.40
2019-03-16T02:23:52.112Z,78.60
2019-03-16T02:26:22.456Z,78.70
2019-03-16T02:28:52.799Z,78.80
2019-03-16T02:31:23.138Z,78.90
2019-03-16T02:33:54.976Z,78.90
2019-03-16T02:36:25.319Z,79.10
2019-03-16T02:38:55.680Z,79.50
2019-03-16T02:41:26.024Z,79.90
2019-03-16T02:43:56.387Z,80.00
2019-03-16T02:46:27.312Z,80.30
2019-03-16T02:48:57.636Z,80.40
2019-03-16T02:51:27.996Z,80.20
2019-03-16T02:53:58.352Z,80.70
2019-03-16T02:56:28.960Z,81.10
2019-03-16T02:58:59.296Z,81.40
2019-03-16T03:01:29.642Z,81.70
2019-03-16T03:03:59.969Z,81.60
2019-03-16T03:06:30.397Z,81.70
2019-03-16T03:09:00.730Z,81.80
2019-03-16T03:11:32.637Z,81.90
2019-03-16T03:14:02.969Z,82.20
2019-03-16T03:16:33.316Z,82.50
2019-03-16T03:19:03.669Z,82.60
2019-03-16T03:21:34.256Z,83.00
2019-03-16T03:24:04.612Z,83.20
2019-03-16T03:26:34.967Z,83.60
2019-03-16T03:29:05.552Z,84.00
2019-03-16T03:31:35.905Z,84.30
2019-03-16T03:34:06.261Z,84.90
2019-03-16T03:36:36.573Z,85.40
2019-03-16T03:39:07.774Z,85.80
2019-03-16T03:41:38.101Z,86.40
2019-03-16T03:44:08.440Z,86.90
2019-03-16T03:46:38.788Z,87.10
2019-03-16T03:49:09.118Z,87.50
2019-03-16T03:51:39.470Z,88.00
2019-03-16T03:54:09.797Z,88.20
2019-03-16T03:56:40.147Z,88.50
2019-03-16T03:59:10.508Z,88.50
2019-03-16T04:01:40.850Z,88.30
2019-03-16T04:04:15.643Z,88.40
2019-03-16T04:06:43.221Z,88.60
2019-03-16T04:09:13.725Z,88.70
2019-03-16T04:11:44.084Z,88.90
2019-03-16T04:14:14.406Z,89.00
2019-03-16T04:16:44.746Z,89.20
2019-03-16T04:19:15.089Z,89.20
2019-03-16T04:21:45.420Z,89.40
2019-03-16T04:24:15.764Z,89.70
2019-03-16T04:26:46.115Z,89.70
2019-03-16T04:29:16.446Z,90.00
2019-03-16T04:31:46.787Z,90.00
2019-03-16T04:34:28.542Z,90.10
2019-03-16T04:36:49.165Z,90.20
2019-03-16T04:39:19.491Z,90.30
2019-03-16T04:41:49.835Z,90.40
2019-03-16T04:44:20.391Z,90.50
2019-03-16T04:46:50.684Z,90.60
2019-03-16T04:49:21.009Z,90.60
2019-03-16T04:51:51.434Z,90.80
2019-03-16T04:54:41.102Z,90.80
2019-03-16T04:57:11.450Z,90.90
2019-03-16T04:59:41.788Z,91.00
2019-03-16T05:02:12.219Z,91.10
2019-03-16T05:04:43.029Z,91.20
2019-03-16T05:07:13.373Z,91.20
2019-03-16T05:09:43.703Z,91.40
2019-03-16T05:12:14.043Z,91.40
2019-03-16T05:14:44.379Z,91.60
2019-03-16T05:17:14.729Z,91.60
2019-03-16T05:19:45.068Z,91.70
2019-03-16T05:22:15.410Z,91.70
2019-03-16T05:24:45.752Z,91.90
2019-03-16T05:27:16.109Z,91.90
2019-03-16T05:29:46.458Z,92.00
2019-03-16T05:32:16.812Z,92.00
2019-03-16T05:34:56.338Z,92.00
2019-03-16T05:37:19.218Z,92.10
2019-03-16T05:39:49.552Z,92.10
2019-03-16T05:42:19.887Z,92.20
2019-03-16T05:44:50.230Z,92.20
2019-03-16T05:47:20.667Z,92.30
2019-03-16T05:49:51.003Z,92.30
2019-03-16T05:52:21.350Z,92.40
2019-03-16T05:54:51.684Z,92.90
2019-03-16T05:57:22.031Z,92.50
2019-03-16T05:59:52.359Z,92.50
2019-03-16T06:02:22.717Z,92.70
2019-03-16T06:04:53.061Z,92.70
2019-03-16T06:07:23.409Z,92.70
2019-03-16T06:09:53.750Z,92.90
2019-03-16T06:12:24.157Z,92.90
2019-03-16T06:15:09.220Z,92.90
2019-03-16T06:17:39.562Z,92.90
2019-03-16T06:20:13.471Z,93.00
2019-03-16T06:22:43.824Z,93.50
2019-03-16T06:25:14.170Z,93.10
2019-03-16T06:27:44.499Z,93.10
2019-03-16T06:30:16.175Z,93.20
2019-03-16T06:32:47.504Z,93.30
2019-03-16T06:35:24.523Z,93.30
2019-03-16T06:37:49.894Z,93.30
2019-03-16T06:40:20.298Z,93.50
2019-03-16T06:42:50.646Z,93.70
2019-03-16T06:45:20.997Z,93.80
2019-03-16T06:47:54.553Z,94.00
2019-03-16T06:50:23.367Z,94.40
2019-03-16T06:52:53.713Z,94.80
2019-03-16T06:55:24.056Z,94.50
2019-03-16T06:57:54.394Z,95.10
2019-03-16T07:00:24.730Z,95.60
2019-03-16T07:02:55.090Z,95.80
2019-03-16T07:05:37.655Z,96.10
2019-03-16T07:07:57.489Z,96.30
2019-03-16T07:10:27.834Z,96.10
2019-03-16T07:12:58.174Z,96.20
2019-03-16T07:15:28.511Z,96.20
2019-03-16T07:17:58.908Z,96.20
2019-03-16T07:20:29.309Z,96.30
2019-03-16T07:22:59.641Z,96.20
2019-03-16T07:25:29.984Z,96.20
2019-03-16T07:28:00.325Z,96.20
2019-03-16T07:30:30.673Z,96.20
2019-03-16T07:33:01.024Z,96.20
2019-03-16T07:35:31.376Z,96.20
2019-03-16T07:38:01.719Z,96.20
2019-03-16T07:40:33.156Z,96.10
2019-03-16T07:43:03.493Z,96.10
2019-03-16T07:45:33.988Z,96.00
2019-03-16T07:48:04.402Z,96.00
2019-03-16T07:50:34.755Z,96.00
2019-03-16T07:53:09.118Z,95.90
2019-03-16T07:55:42.096Z,95.80
2019-03-16T07:58:11.510Z,95.80
2019-03-16T08:00:41.858Z,95.70
2019-03-16T08:03:13.758Z,95.20
2019-03-16T08:05:44.098Z,95.10
2019-03-16T08:08:14.441Z,95.10
2019-03-16T08:10:44.897Z,95.10
2019-03-16T08:13:21.044Z,95.10
2019-03-16T08:15:51.401Z,95.00
2019-03-16T08:18:21.748Z,95.00
2019-03-16T08:20:52.094Z,95.00
2019-03-16T08:23:22.441Z,95.00
2019-03-16T08:25:52.837Z,94.90
2019-03-16T08:28:23.170Z,95.00
2019-03-16T08:30:56.631Z,94.90
2019-03-16T08:33:25.574Z,94.90
2019-03-16T08:35:55.925Z,95.00
2019-03-16T08:38:26.292Z,94.90
2019-03-16T08:40:56.714Z,95.00
2019-03-16T08:43:27.086Z,95.00
2019-03-16T08:45:57.425Z,94.90
2019-03-16T08:48:29.319Z,94.90
2019-03-16T08:50:59.663Z,94.90
2019-03-16T08:53:33.211Z,94.80
2019-03-16T08:56:03.574Z,94.90
2019-03-16T08:58:33.907Z,94.80
2019-03-16T09:01:04.264Z,94.70
2019-03-16T09:03:43.548Z,94.70
2019-03-16T09:06:06.658Z,94.40
2019-03-16T09:08:37.000Z,94.40
2019-03-16T09:11:07.347Z,94.20
2019-03-16T09:13:37.699Z,94.10
2019-03-16T09:16:08.040Z,93.90
2019-03-16T09:18:38.423Z,93.70
2019-03-16T09:21:08.768Z,93.50
2019-03-16T09:23:40.054Z,93.40
2019-03-16T09:26:12.032Z,93.10
2019-03-16T09:28:42.395Z,93.10
2019-03-16T09:31:12.756Z,93.10
2019-03-16T09:33:43.089Z,92.90
2019-03-16T09:36:13.443Z,93.00
2019-03-16T09:38:43.782Z,92.90
2019-03-16T09:41:14.132Z,92.70
2019-03-16T09:43:44.479Z,92.70
2019-03-16T09:46:14.814Z,92.70
2019-03-16T09:48:45.181Z,92.80
2019-03-16T09:51:15.530Z,93.10
2019-03-16T09:53:45.968Z,92.70
2019-03-16T09:59:25.081Z,92.50
2019-03-16T10:01:55.430Z,92.60
2019-03-16T10:04:25.770Z,92.60
2019-03-16T10:06:56.131Z,92.70
2019-03-16T10:09:26.654Z,92.40
2019-03-16T10:11:56.994Z,92.40
2019-03-16T10:14:27.349Z,92.80
2019-03-16T10:16:57.687Z,92.50
2019-03-16T10:19:32.672Z,92.20
2019-03-16T10:22:12.095Z,92.20
2019-03-16T10:24:42.460Z,92.10
2019-03-16T10:27:12.814Z,91.60
2019-03-16T10:29:43.182Z,91.80
2019-03-16T10:32:13.554Z,91.40
2019-03-16T10:34:43.904Z,91.30
2019-03-16T10:37:34.654Z,91.10
2019-03-16T10:40:09.476Z,91.10
2019-03-16T10:42:39.883Z,91.10
2019-03-16T10:45:13.942Z,90.60
2019-03-16T10:47:44.277Z,90.60
2019-03-16T10:50:15.474Z,90.20
2019-03-16T10:52:45.888Z,90.50
2019-03-16T10:55:16.223Z,90.10
2019-03-16T10:57:46.579Z,90.20
2019-03-16T11:00:17.953Z,90.10
2019-03-16T11:02:48.330Z,90.10
2019-03-16T11:05:18.746Z,89.90
2019-03-16T11:07:49.087Z,89.00
2019-03-16T11:10:19.425Z,88.70
2019-03-16T11:12:49.762Z,88.00
2019-03-16T11:15:20.114Z,88.80
2019-03-16T11:17:50.456Z,87.90
2019-03-16T11:20:21.176Z,87.80
2019-03-16T11:22:51.523Z,86.40
2019-03-16T11:25:23.481Z,87.50
2019-03-16T11:27:53.830Z,86.70
2019-03-16T11:30:24.174Z,86.10
2019-03-16T11:32:54.515Z,84.70
2019-03-16T11:35:24.863Z,84.50
2019-03-16T11:37:55.391Z,82.00
2019-03-16T11:40:25.723Z,81.40
2019-03-16T11:42:56.065Z,81.20
2019-03-16T11:45:26.408Z,81.10
2019-03-16T11:47:56.839Z,79.90
2019-03-16T11:50:27.182Z,78.10
2019-03-16T11:52:57.518Z,78.80
2019-03-16T11:55:27.882Z,79.50
2019-03-16T11:57:58.234Z,78.10
2019-03-16T12:00:28.566Z,79.00
2019-03-16T12:02:58.939Z,78.30
2019-03-16T12:05:29.291Z,79.40
2019-03-16T12:07:59.626Z,79.30
2019-03-16T12:10:29.962Z,77.60
2019-03-16T12:13:00.298Z,77.80
2019-03-16T12:15:30.738Z,77.60
2019-03-16T12:18:01.065Z,78.00
2019-03-16T12:20:31.413Z,78.50
2019-03-16T12:23:01.764Z,78.50
2019-03-16T12:25:32.107Z,79.40
2019-03-16T12:28:02.445Z,80.00
2019-03-16T12:30:32.789Z,79.10
2019-03-16T12:33:03.160Z,79.80
2019-03-16T12:35:33.499Z,80.10
2019-03-16T12:38:04.829Z,80.40
2019-03-16T12:40:35.164Z,78.40
2019-03-16T12:43:05.505Z,78.20
2019-03-16T12:45:35.842Z,78.30
2019-03-16T12:48:06.194Z,77.20
2019-03-16T12:50:36.534Z,76.70
2019-03-16T12:53:07.030Z,76.20
2019-03-16T12:55:37.370Z,76.90
2019-03-16T12:58:07.786Z,77.90
2019-03-16T13:00:38.117Z,79.20
2019-03-16T13:03:08.460Z,78.60
2019-03-16T13:05:38.809Z,78.00
2019-03-16T13:08:09.149Z,78.90
2019-03-16T13:10:39.484Z,79.50
2019-03-16T13:13:09.837Z,80.10
2019-03-16T13:15:40.174Z,80.20
2019-03-16T13:18:10.516Z,80.50
2019-03-16T13:20:40.849Z,80.30
2019-03-16T13:23:11.193Z,80.40
2019-03-16T13:25:41.536Z,80.00
2019-03-16T13:28:11.876Z,79.50
2019-03-16T13:30:42.222Z,79.80
2019-03-16T13:33:12.572Z,79.30
2019-03-16T13:35:42.909Z,79.80
2019-03-16T13:38:13.249Z,79.00
2019-03-16T13:40:43.589Z,79.30
2019-03-16T13:43:13.927Z,79.50
2019-03-16T13:45:44.257Z,79.10
2019-03-16T13:48:14.595Z,78.50
2019-03-16T13:50:44.945Z,78.40
2019-03-16T13:53:15.293Z,78.40
2019-03-16T13:55:45.650Z,78.00
2019-03-16T13:58:16.010Z,76.40
2019-03-16T14:00:46.418Z,76.30
2019-03-16T14:03:17.046Z,75.90
2019-03-16T14:05:47.386Z,76.50
2019-03-16T14:08:17.779Z,76.70
2019-03-16T14:10:48.114Z,77.90
2019-03-16T14:13:18.736Z,77.70
2019-03-16T14:15:49.079Z,77.50
2019-03-16T14:18:19.426Z,76.30
2019-03-16T14:20:49.761Z,77.10
2019-03-16T14:23:20.111Z,76.00
2019-03-16T14:25:50.446Z,76.60
2019-03-16T14:28:20.991Z,76.20
2019-03-16T14:30:51.379Z,76.90
2019-03-16T14:33:21.697Z,77.00
2019-03-16T14:35:52.107Z,75.80
2019-03-16T14:38:22.457Z,76.50
2019-03-16T14:40:52.793Z,76.30
2019-03-16T14:43:23.150Z,75.70
2019-03-16T14:45:53.487Z,76.60
2019-03-16T14:48:24.115Z,76.80
2019-03-16T14:50:54.692Z,76.40
2019-03-16T14:53:25.016Z,76.70
2019-03-16T14:55:56.457Z,76.40
2019-03-16T14:58:26.916Z,76.10
2019-03-16T15:00:57.265Z,76.30
2019-03-16T15:03:27.612Z,76.40
2019-03-16T15:05:57.961Z,77.10
2019-03-16T15:08:28.299Z,76.90
2019-03-16T15:10:58.644Z,76.90
2019-03-16T15:13:29.085Z,76.50
2019-03-16T15:15:59.420Z,75.70
2019-03-16T15:18:29.788Z,75.80
2019-03-16T15:21:00.132Z,75.80
2019-03-16T15:23:30.489Z,76.10
2019-03-16T15:26:00.826Z,75.60
2019-03-16T15:28:31.166Z,74.90
2019-03-16T15:31:01.516Z,73.60
2019-03-16T15:33:31.857Z,74.00
2019-03-16T15:36:02.218Z,73.20
2019-03-16T15:38:33.618Z,72.90
2019-03-16T15:41:03.959Z,72.80
2019-03-16T15:43:34.303Z,73.00
2019-03-16T15:46:04.666Z,73.30
2019-03-16T15:48:35.914Z,73.30
2019-03-16T15:58:07.512Z,74.50
2019-03-16T16:00:29.015Z,74.50
2019-03-16T16:03:00.994Z,74.00
2019-03-16T16:05:31.356Z,74.70
2019-03-16T16:08:01.716Z,73.60
2019-03-16T16:10:35.014Z,73.60
2019-03-16T16:13:10.081Z,72.30
2019-03-16T16:15:42.210Z,73.30
2019-03-16T16:18:12.582Z,73.10
2019-03-16T16:20:42.961Z,72.70
2019-03-16T16:23:13.513Z,72.40
2019-03-16T16:25:45.402Z,72.00
2019-03-16T16:28:18.352Z,71.90
2019-03-16T16:30:48.721Z,72.40
2019-03-16T16:33:19.095Z,72.00
2019-03-16T16:35:49.519Z,71.90
2019-03-16T16:38:24.287Z,71.20
2019-03-16T16:40:56.235Z,71.90
2019-03-16T16:43:28.208Z,71.10
2019-03-16T16:45:59.247Z,70.90
2019-03-16T16:48:29.611Z,70.10
2019-03-16T16:50:59.960Z,70.00
2019-03-16T16:53:38.118Z,70.40
2019-03-16T16:56:08.674Z,69.90
2019-03-16T16:58:39.012Z,69.80
2019-03-16T17:01:09.381Z,69.90
2019-03-16T17:03:41.336Z,70.00
2019-03-16T17:06:11.686Z,69.80
2019-03-16T17:08:42.068Z,69.50
2019-03-16T17:11:13.965Z,69.80
2019-03-16T17:13:44.481Z,69.60
2019-03-16T17:16:14.931Z,69.10
2019-03-16T17:18:45.291Z,69.60
2019-03-16T17:21:15.970Z,69.80
2019-03-16T17:23:46.331Z,69.50
2019-03-16T17:26:16.767Z,68.90
2019-03-16T17:28:47.154Z,69.10
2019-03-16T17:31:17.526Z,68.40
2019-03-16T17:33:47.921Z,68.90
2019-03-16T17:36:18.426Z,69.40
2019-03-16T17:38:48.796Z,68.10
2019-03-16T17:41:19.147Z,68.70
2019-03-16T17:43:49.502Z,68.30
2019-03-16T17:46:19.870Z,68.40
2019-03-16T17:48:50.221Z,67.90
2019-03-16T17:51:20.577Z,68.10
2019-03-16T17:53:50.938Z,67.20
2019-03-16T17:56:21.332Z,67.80
2019-03-16T17:58:51.664Z,67.80
2019-03-16T18:01:22.041Z,68.00
2019-03-16T18:03:52.373Z,67.70
2019-03-16T18:06:22.717Z,68.60
2019-03-16T18:08:53.091Z,68.50
2019-03-16T18:11:23.452Z,68.70
2019-03-16T18:13:53.834Z,69.40
2019-03-16T18:16:24.215Z,70.20
2019-03-16T18:18:54.589Z,70.50
2019-03-16T18:21:25.019Z,70.20
2019-03-16T18:23:57.274Z,70.70
2019-03-16T18:26:27.672Z,71.20
2019-03-16T18:28:58.365Z,71.10
2019-03-16T18:31:28.729Z,72.00
2019-03-16T18:33:59.206Z,72.00
2019-03-16T18:36:30.474Z,72.10
2019-03-16T18:39:00.838Z,72.40
2019-03-16T18:41:32.374Z,72.70
2019-03-16T18:44:02.876Z,73.20
2019-03-16T18:46:33.272Z,73.70
2019-03-16T18:49:06.754Z,73.90
2019-03-16T18:51:37.169Z,74.00
2019-03-16T18:54:07.542Z,74.50
2019-03-16T18:56:37.996Z,74.40
2019-03-16T18:59:09.335Z,74.80
2019-03-16T19:01:39.903Z,75.00
2019-03-16T19:04:11.720Z,76.20
2019-03-16T19:06:42.327Z,75.90
2019-03-16T19:09:12.728Z,75.70
2019-03-16T19:11:43.103Z,75.90
2019-03-16T19:14:18.469Z,76.20
2019-03-16T19:16:50.508Z,76.70
2019-03-16T19:19:20.864Z,76.50
2019-03-16T19:21:51.222Z,76.70
2019-03-16T19:24:23.332Z,76.90
2019-03-16T19:26:53.966Z,76.90
2019-03-16T19:29:25.275Z,77.20
2019-03-16T19:31:55.685Z,77.60
2019-03-16T19:34:26.034Z,77.60
2019-03-16T19:36:56.453Z,77.50
2019-03-16T19:39:26.777Z,77.50
2019-03-16T19:41:57.147Z,77.60
2019-03-16T19:44:27.514Z,77.50
2019-03-16T19:46:57.892Z,77.70
2019-03-16T19:49:28.287Z,77.60
2019-03-16T19:51:58.910Z,77.70
2019-03-16T19:54:29.515Z,78.50
2019-03-16T19:57:00.098Z,77.60
2019-03-16T19:59:30.458Z,77.70
2019-03-16T20:02:02.525Z,77.90
2019-03-16T20:04:36.231Z,77.70
2019-03-16T20:07:18.806Z,77.50
2019-03-16T20:09:39.454Z,77.70
2019-03-16T20:12:09.836Z,77.00
2019-03-16T20:14:40.188Z,77.60
2019-03-16T20:17:10.551Z,77.60
2019-03-16T20:19:43.547Z,77.90
2019-03-16T20:22:13.924Z,77.70
2019-03-16T20:24:44.317Z,77.20
2019-03-16T20:27:16.300Z,77.20
2019-03-16T20:29:46.753Z,77.40
2019-03-16T20:32:17.263Z,77.40
2019-03-16T20:34:48.785Z,77.70
2019-03-16T20:37:20.843Z,77.60
2019-03-16T20:39:51.606Z,77.70
2019-03-16T20:42:24.936Z,77.70
2019-03-16T20:44:55.365Z,77.50
2019-03-16T20:47:26.287Z,77.70
2019-03-16T20:49:56.651Z,77.60
2019-03-16T20:52:27.079Z,77.60
2019-03-16T20:54:57.611Z,77.70
2019-03-16T20:57:32.354Z,77.10
2019-03-16T21:00:02.877Z,77.10
2019-03-16T21:02:35.948Z,77.30
2019-03-16T21:05:12.430Z,77.00
2019-03-16T21:07:42.820Z,77.60
2019-03-16T21:10:14.218Z,76.70
2019-03-16T21:12:45.591Z,76.70
2019-03-16T21:15:18.549Z,76.70
2019-03-16T21:17:48.966Z,76.60
2019-03-16T21:20:20.365Z,77.10
2019-03-16T21:22:50.745Z,76.80
2019-03-16T21:25:21.099Z,77.10
2019-03-16T21:27:51.506Z,77.80
2019-03-16T21:30:43.287Z,77.30
2019-03-16T21:33:28.877Z,77.40
2019-03-16T21:35:51.090Z,77.20
2019-03-16T21:38:30.372Z,76.80
2019-03-16T21:41:12.857Z,76.80
2019-03-16T21:43:45.925Z,76.80
2019-03-16T21:49:49.254Z,76.70
2019-03-16T21:52:21.966Z,76.10
2019-03-16T21:55:04.072Z,75.90
2019-03-16T21:57:36.224Z,75.30
2019-03-16T22:00:16.170Z,75.90
2019-03-16T22:02:46.642Z,75.90
2019-03-16T22:05:20.493Z,75.80
2019-03-16T22:08:12.977Z,76.20
2019-03-16T22:10:46.701Z,76.10
2019-03-16T22:16:17.028Z,76.10
2019-03-16T22:18:47.501Z,76.20
2019-03-16T22:21:18.208Z,75.70
2019-03-16T22:23:48.813Z,76.20
2019-03-16T22:26:19.586Z,76.20
2019-03-16T22:28:50.176Z,76.00
2019-03-16T22:31:22.432Z,75.60
2019-03-16T22:33:54.759Z,76.00
2019-03-16T22:36:25.173Z,75.50
2019-03-16T22:38:56.957Z,75.50
2019-03-16T22:41:45.305Z,75.80
2019-03-16T22:44:17.313Z,75.40
2019-03-16T22:46:49.629Z,75.40
2019-03-16T22:49:31.199Z,75.00
2019-03-16T22:52:27.034Z,75.60
2019-03-16T22:55:03.842Z,75.30
2019-03-16T22:57:43.516Z,75.70
2019-03-16T23:03:32.515Z,75.30
2019-03-16T23:06:02.858Z,75.40
2019-03-16T23:08:33.189Z,75.30
2019-03-16T23:11:03.528Z,75.20
2019-03-16T23:13:33.890Z,76.30
2019-03-16T23:16:04.238Z,75.40
2019-03-16T23:18:34.587Z,75.20
2019-03-16T23:21:04.905Z,75.30
2019-03-16T23:23:35.242Z,75.50
2019-03-16T23:26:05.571Z,75.00
2019-03-16T23:28:35.989Z,75.20
2019-03-16T23:31:06.398Z,75.20
2019-03-16T23:33:36.750Z,75.10
2019-03-16T23:36:07.078Z,73.80
2019-03-16T23:38:37.407Z,73.70
2019-03-16T23:41:07.747Z,74.10
2019-03-16T23:43:38.087Z,73.10
2019-03-16T23:46:08.430Z,73.30
2019-03-16T23:48:38.773Z,73.40
2019-03-16T23:51:09.288Z,73.40
2019-03-16T23:53:39.627Z,73.50
2019-03-16T23:56:10.052Z,73.20
2019-03-16T23:58:40.392Z,73.00
